Terminal Aerodrome Forecast
Issued by NWS Spokane, WA

Home | Current Version | Previous Version | Text Only | Print | Product List | Glossary On
Versions: 1 2 3 4 5 6 7 8 9 10 11 12 13 14 15 16 17 18 19 20 21 22 23 24 25 26
000
FTUS46 KOTX 222336
TAFGEG
TAF
KGEG 222336Z 2300/2324 00000KT P6SM FEW040 SCT070
     FM230600 07004KT P6SM BKN200
     FM231800 07005KT P6SM OVC040
     FM232000 08006KT 3SM -SN OVC020
     FM232200 09006KT 1/2SM SN OVC009=

USA.gov is the U.S. government's official web portal to all federal, state and local government web resources and services.